createdAt,value
2018-08-20T00:00:50.118Z,22.10
2018-08-20T00:03:18.609Z,22.00
2018-08-20T00:05:52.399Z,22.00
2018-08-20T00:08:21.002Z,21.90
2018-08-20T00:10:51.909Z,21.90
2018-08-20T00:13:20.454Z,21.90
2018-08-20T00:15:48.940Z,21.80
2018-08-20T00:18:22.667Z,21.80
2018-08-20T00:20:51.115Z,21.90
2018-08-20T00:23:19.577Z,21.70
2018-08-20T00:25:48.207Z,21.70
2018-08-20T00:28:16.655Z,21.70
2018-08-20T00:30:45.222Z,21.70
2018-08-20T00:33:13.805Z,21.60
2018-08-20T00:35:43.295Z,21.60
2018-08-20T00:38:12.879Z,21.50
2018-08-20T00:40:41.419Z,21.40
2018-08-20T00:43:09.968Z,21.30
2018-08-20T00:45:38.516Z,21.30
2018-08-20T00:48:07.150Z,21.10
2018-08-20T00:50:35.667Z,21.00
2018-08-20T00:53:04.265Z,20.90
2018-08-20T00:55:32.812Z,20.80
2018-08-20T00:58:01.388Z,20.70
2018-08-20T01:00:29.899Z,20.70
2018-08-20T01:02:58.463Z,20.70
2018-08-20T01:05:27.003Z,20.70
2018-08-20T01:07:55.563Z,20.70
2018-08-20T01:10:24.087Z,20.80
2018-08-20T01:12:52.671Z,20.70
2018-08-20T01:15:21.211Z,20.70
2018-08-20T01:17:49.764Z,20.70
2018-08-20T01:20:18.330Z,20.60
2018-08-20T01:22:46.885Z,20.50
2018-08-20T01:25:15.451Z,20.60
2018-08-20T01:27:48.969Z,20.60
2018-08-20T01:30:17.530Z,20.70
2018-08-20T01:32:46.023Z,20.60
2018-08-20T01:35:25.682Z,20.50
2018-08-20T01:37:54.162Z,20.50
2018-08-20T01:40:22.630Z,20.50
2018-08-20T01:42:51.121Z,20.50
2018-08-20T01:45:19.598Z,20.50
2018-08-20T01:47:48.058Z,20.50
2018-08-20T01:50:16.596Z,20.50
2018-08-20T01:52:45.130Z,20.50
2018-08-20T01:55:13.673Z,20.50
2018-08-20T01:57:42.174Z,20.50
2018-08-20T02:00:10.842Z,20.40
2018-08-20T02:02:39.338Z,20.40
2018-08-20T02:05:08.493Z,20.40
2018-08-20T02:07:37.130Z,20.40
2018-08-20T02:10:06.753Z,20.30
2018-08-20T02:12:35.252Z,20.30
2018-08-20T02:15:04.062Z,20.30
2018-08-20T02:17:32.597Z,20.30
2018-08-20T02:20:01.134Z,20.30
2018-08-20T02:22:29.630Z,20.20
2018-08-20T02:24:58.184Z,20.20
2018-08-20T02:27:26.709Z,20.30
2018-08-20T02:29:55.372Z,20.20
2018-08-20T02:32:23.878Z,20.20
2018-08-20T02:34:52.502Z,20.20
2018-08-20T02:37:20.991Z,20.10
2018-08-20T02:39:49.573Z,20.00
2018-08-20T02:42:18.111Z,19.90
2018-08-20T02:44:46.637Z,19.80
2018-08-20T02:47:15.144Z,19.80
2018-08-20T02:49:43.676Z,19.80
2018-08-20T02:52:12.190Z,19.70
2018-08-20T02:54:40.716Z,19.60
2018-08-20T02:57:09.253Z,19.50
2018-08-20T02:59:37.756Z,19.30
2018-08-20T03:02:06.313Z,19.30
2018-08-20T03:04:34.849Z,19.20
2018-08-20T03:07:03.796Z,19.10
2018-08-20T03:09:32.315Z,19.10
2018-08-20T03:12:00.790Z,19.10
2018-08-20T03:14:29.294Z,19.10
2018-08-20T03:16:57.836Z,19.00
2018-08-20T03:19:26.345Z,19.00
2018-08-20T03:21:54.824Z,19.00
2018-08-20T03:24:23.399Z,19.00
2018-08-20T03:26:51.979Z,19.10
2018-08-20T03:29:20.541Z,19.10
2018-08-20T03:31:49.073Z,19.10
2018-08-20T03:34:17.557Z,19.00
2018-08-20T03:36:46.092Z,18.90
2018-08-20T03:39:14.586Z,18.90
2018-08-20T03:41:43.120Z,18.80
2018-08-20T03:44:11.629Z,18.80
2018-08-20T03:46:40.187Z,18.80
2018-08-20T03:49:08.730Z,18.80
2018-08-20T03:51:37.245Z,18.70
2018-08-20T03:54:05.923Z,18.60
2018-08-20T03:56:34.490Z,18.50
2018-08-20T03:59:03.151Z,18.50
2018-08-20T04:01:31.644Z,18.50
2018-08-20T04:04:00.120Z,18.50
2018-08-20T04:06:28.648Z,18.50
2018-08-20T04:08:57.162Z,18.50
2018-08-20T04:11:25.686Z,18.50
2018-08-20T04:13:54.188Z,18.50
2018-08-20T04:16:22.690Z,18.40
2018-08-20T04:18:55.704Z,18.50
2018-08-20T04:21:24.218Z,18.40
2018-08-20T04:23:52.716Z,18.50
2018-08-20T04:26:21.214Z,18.50
2018-08-20T04:28:49.715Z,18.50
2018-08-20T04:31:18.290Z,18.50
2018-08-20T04:33:46.798Z,18.60
2018-08-20T04:36:15.342Z,18.50
2018-08-20T04:38:43.894Z,18.60
2018-08-20T04:41:12.586Z,18.70
2018-08-20T04:43:41.119Z,18.80
2018-08-20T04:46:09.649Z,18.90
2018-08-20T04:48:38.155Z,19.00
2018-08-20T04:51:06.923Z,19.20
2018-08-20T04:53:35.228Z,19.20
2018-08-20T04:56:03.845Z,19.20
2018-08-20T04:58:32.483Z,19.40
2018-08-20T05:01:01.021Z,19.40
2018-08-20T05:03:29.810Z,19.50
2018-08-20T05:05:58.337Z,19.50
2018-08-20T05:08:26.842Z,19.70
2018-08-20T05:10:55.371Z,19.50
2018-08-20T05:13:23.880Z,19.70
2018-08-20T05:15:52.394Z,20.00
2018-08-20T05:18:20.907Z,20.10
2018-08-20T05:20:49.431Z,20.20
2018-08-20T05:23:17.971Z,20.50
2018-08-20T05:25:46.497Z,20.60
2018-08-20T05:28:15.008Z,20.80
2018-08-20T05:30:43.558Z,20.50
2018-08-20T05:33:12.068Z,20.70
2018-08-20T05:35:40.564Z,21.00
2018-08-20T05:38:09.100Z,21.10
2018-08-20T05:40:37.650Z,21.10
2018-08-20T05:43:06.428Z,21.40
2018-08-20T05:45:34.941Z,21.20
2018-08-20T05:48:04.456Z,21.10
2018-08-20T05:50:32.988Z,21.10
2018-08-20T05:53:01.527Z,21.20
2018-08-20T05:55:30.158Z,21.10
2018-08-20T05:57:58.706Z,21.00
2018-08-20T06:00:27.937Z,21.10
2018-08-20T06:02:56.500Z,21.20
2018-08-20T06:05:25.211Z,21.10
2018-08-20T06:07:53.784Z,21.40
2018-08-20T06:10:22.316Z,21.40
2018-08-20T06:12:50.895Z,21.70
2018-08-20T06:15:19.510Z,21.80
2018-08-20T06:17:48.061Z,21.90
2018-08-20T06:20:17.550Z,21.80
2018-08-20T06:22:46.201Z,21.80
2018-08-20T06:25:15.065Z,22.00
2018-08-20T06:27:43.874Z,22.20
2018-08-20T06:30:16.472Z,22.10
2018-08-20T06:32:45.571Z,22.30
2018-08-20T06:35:14.141Z,22.10
2018-08-20T06:37:42.762Z,22.20
2018-08-20T06:40:13.043Z,22.30
2018-08-20T06:42:41.585Z,22.40
2018-08-20T06:45:16.713Z,22.40
2018-08-20T06:47:46.068Z,22.60
2018-08-20T06:50:15.486Z,22.70
2018-08-20T06:52:44.782Z,22.70
2018-08-20T06:55:14.440Z,22.90
2018-08-20T06:57:44.016Z,23.00
2018-08-20T07:00:12.831Z,23.20
2018-08-20T07:02:41.402Z,23.20
2018-08-20T07:05:10.385Z,23.30
2018-08-20T07:07:39.950Z,23.50
2018-08-20T07:10:11.140Z,23.70
2018-08-20T07:12:39.685Z,24.10
2018-08-20T07:15:09.309Z,24.10
2018-08-20T07:17:37.842Z,24.30
2018-08-20T07:20:08.078Z,24.10
2018-08-20T07:22:36.663Z,24.20
2018-08-20T07:25:06.119Z,24.30
2018-08-20T07:27:35.267Z,24.00
2018-08-20T07:30:04.441Z,24.40
2018-08-20T07:32:32.974Z,24.10
2018-08-20T07:35:01.534Z,24.10
2018-08-20T07:37:30.011Z,24.30
2018-08-20T07:39:58.545Z,24.50
2018-08-20T07:42:27.038Z,24.20
2018-08-20T07:44:55.586Z,24.20
2018-08-20T07:47:24.067Z,24.30
2018-08-20T07:49:52.598Z,24.20
2018-08-20T07:52:21.081Z,23.90
2018-08-20T07:54:49.612Z,24.10
2018-08-20T07:57:18.085Z,24.20
2018-08-20T07:59:46.596Z,24.10
2018-08-20T08:02:15.107Z,24.20
2018-08-20T08:04:43.594Z,24.10
2018-08-20T08:07:12.125Z,24.30
2018-08-20T08:09:40.831Z,24.30
2018-08-20T08:12:09.357Z,24.50
2018-08-20T08:14:37.879Z,24.50
2018-08-20T08:17:06.566Z,24.70
2018-08-20T08:19:35.135Z,24.70
2018-08-20T08:22:03.713Z,24.80
2018-08-20T08:24:32.263Z,24.90
2018-08-20T08:27:00.761Z,25.00
2018-08-20T08:29:29.323Z,25.10
2018-08-20T08:31:57.805Z,25.20
2018-08-20T08:34:26.300Z,25.00
2018-08-20T08:36:54.799Z,25.10
2018-08-20T08:39:23.322Z,25.10
2018-08-20T08:41:51.834Z,25.10
2018-08-20T08:44:20.358Z,25.50
2018-08-20T08:46:48.875Z,25.60
2018-08-20T08:49:17.352Z,25.20
2018-08-20T08:51:45.845Z,25.50
2018-08-20T08:54:14.370Z,25.70
2018-08-20T08:56:42.851Z,25.40
2018-08-20T08:59:11.356Z,25.40
2018-08-20T09:01:39.837Z,25.50
2018-08-20T09:04:08.328Z,25.70
2018-08-20T09:06:36.835Z,25.80
2018-08-20T09:09:07.197Z,25.70
2018-08-20T09:11:35.731Z,25.90
2018-08-20T09:14:04.274Z,25.80
2018-08-20T09:16:32.757Z,25.70
2018-08-20T09:19:01.233Z,25.80
2018-08-20T09:21:29.738Z,25.70
2018-08-20T09:23:58.301Z,25.80
2018-08-20T09:26:26.770Z,25.80
2018-08-20T09:28:55.274Z,25.70
2018-08-20T09:31:23.782Z,25.90
2018-08-20T09:33:52.527Z,26.00
2018-08-20T09:36:20.999Z,26.30
2018-08-20T09:38:49.804Z,26.30
2018-08-20T09:41:18.268Z,26.70
2018-08-20T09:43:46.769Z,26.70
2018-08-20T09:46:15.202Z,26.60
2018-08-20T09:48:43.684Z,26.10
2018-08-20T09:51:12.142Z,26.20
2018-08-20T09:53:40.618Z,26.70
2018-08-20T09:56:09.144Z,26.80
2018-08-20T09:58:37.625Z,26.90
2018-08-20T10:01:06.190Z,27.10
2018-08-20T10:03:34.648Z,27.10
2018-08-20T10:06:03.171Z,27.20
2018-08-20T10:08:31.648Z,27.10
2018-08-20T10:11:00.154Z,27.00
2018-08-20T10:13:28.630Z,26.90
2018-08-20T10:15:57.162Z,26.60
2018-08-20T10:18:25.648Z,26.80
2018-08-20T10:20:54.170Z,26.60
2018-08-20T10:23:22.635Z,26.80
2018-08-20T10:25:51.150Z,27.00
2018-08-20T10:28:19.609Z,27.10
2018-08-20T10:30:48.131Z,27.10
2018-08-20T10:33:16.598Z,27.30
2018-08-20T10:35:45.108Z,27.30
2018-08-20T10:38:13.607Z,27.30
2018-08-20T10:40:42.175Z,27.50
2018-08-20T10:43:10.652Z,27.10
2018-08-20T10:45:44.675Z,27.10
2018-08-20T10:48:13.118Z,27.20
2018-08-20T10:50:41.631Z,27.50
2018-08-20T10:53:10.119Z,27.60
2018-08-20T10:55:38.610Z,27.90
2018-08-20T10:58:07.116Z,27.90
2018-08-20T11:00:35.606Z,28.00
2018-08-20T11:03:04.153Z,28.00
2018-08-20T11:05:32.634Z,27.90
2018-08-20T11:08:01.114Z,27.70
2018-08-20T11:10:29.646Z,27.50
2018-08-20T11:12:58.161Z,27.40
2018-08-20T11:15:26.642Z,27.30
2018-08-20T11:17:55.191Z,27.30
2018-08-20T11:20:23.686Z,27.70
2018-08-20T11:22:52.168Z,27.70
2018-08-20T11:25:20.622Z,27.90
2018-08-20T11:27:49.155Z,28.10
2018-08-20T11:30:17.768Z,28.10
2018-08-20T11:32:46.243Z,27.80
2018-08-20T11:35:14.694Z,27.70
2018-08-20T11:37:43.200Z,27.50
2018-08-20T11:40:11.713Z,27.60
2018-08-20T11:42:40.186Z,27.80
2018-08-20T11:45:10.621Z,28.10
2018-08-20T11:47:39.151Z,28.20
2018-08-20T11:50:07.820Z,28.50
2018-08-20T11:52:36.749Z,28.40
2018-08-20T11:55:05.448Z,28.30
2018-08-20T11:57:33.983Z,28.40
2018-08-20T12:00:02.511Z,28.10
2018-08-20T12:02:31.394Z,28.40
2018-08-20T12:04:59.870Z,28.20
2018-08-20T12:07:28.482Z,28.00
2018-08-20T12:09:56.939Z,28.20
2018-08-20T12:12:25.571Z,28.10
2018-08-20T12:14:54.202Z,28.00
2018-08-20T12:17:22.780Z,28.10
2018-08-20T12:19:51.194Z,28.40
2018-08-20T12:22:19.653Z,28.40
2018-08-20T12:24:48.132Z,28.80
2018-08-20T12:27:16.631Z,28.70
2018-08-20T12:29:45.121Z,28.70
2018-08-20T12:32:13.619Z,28.70
2018-08-20T12:34:42.100Z,28.60
2018-08-20T12:37:10.574Z,28.80
2018-08-20T12:39:39.096Z,28.60
2018-08-20T12:42:07.946Z,28.60
2018-08-20T12:44:36.428Z,28.80
2018-08-20T12:47:04.930Z,28.90
2018-08-20T12:49:33.417Z,28.80
2018-08-20T12:52:01.898Z,28.60
2018-08-20T12:54:30.475Z,28.80
2018-08-20T12:56:58.966Z,28.90
2018-08-20T12:59:27.452Z,28.50
2018-08-20T13:01:55.915Z,28.80
2018-08-20T13:04:24.428Z,28.80
2018-08-20T13:06:52.897Z,29.10
2018-08-20T13:09:21.401Z,29.30
2018-08-20T13:11:49.842Z,29.40
2018-08-20T13:14:18.323Z,29.30
2018-08-20T13:16:46.794Z,29.40
2018-08-20T13:19:15.259Z,29.30
2018-08-20T13:21:43.712Z,29.30
2018-08-20T13:24:12.254Z,29.60
2018-08-20T13:26:40.738Z,29.60
2018-08-20T13:29:09.243Z,29.40
2018-08-20T13:31:37.717Z,29.50
2018-08-20T13:34:06.719Z,29.30
2018-08-20T13:36:35.210Z,29.20
2018-08-20T13:39:04.938Z,29.00
2018-08-20T13:41:33.417Z,29.00
2018-08-20T13:44:02.044Z,29.20
2018-08-20T13:46:30.508Z,29.00
2018-08-20T13:48:59.051Z,29.20
2018-08-20T13:51:27.528Z,29.30
2018-08-20T13:53:56.010Z,29.30
2018-08-20T13:56:24.504Z,29.30
2018-08-20T13:58:52.965Z,29.20
2018-08-20T14:01:21.446Z,28.80
2018-08-20T14:03:49.940Z,28.90
2018-08-20T14:06:18.426Z,28.90
2018-08-20T14:08:46.967Z,29.00
2018-08-20T14:11:15.458Z,29.20
2018-08-20T14:13:43.935Z,29.20
2018-08-20T14:16:12.442Z,28.80
2018-08-20T14:18:40.946Z,29.30
2018-08-20T14:21:16.667Z,29.50
2018-08-20T14:23:46.646Z,28.90
2018-08-20T14:26:15.150Z,29.10
2018-08-20T14:28:43.681Z,29.30
2018-08-20T14:31:12.221Z,29.70
2018-08-20T14:33:40.840Z,29.80
2018-08-20T14:36:09.842Z,29.40
2018-08-20T14:38:38.280Z,29.10
2018-08-20T14:41:06.901Z,29.10
2018-08-20T14:43:35.404Z,29.20
2018-08-20T14:46:09.394Z,29.50
2018-08-20T14:48:37.965Z,29.30
2018-08-20T14:51:06.512Z,29.20
2018-08-20T14:53:35.021Z,29.30
2018-08-20T14:56:03.520Z,29.30
2018-08-20T14:58:31.998Z,29.40
2018-08-20T15:01:00.547Z,29.30
2018-08-20T15:03:29.015Z,29.20
2018-08-20T15:05:57.566Z,29.30
2018-08-20T15:08:26.051Z,29.20
2018-08-20T15:10:54.550Z,28.90
2018-08-20T15:13:23.041Z,29.10
2018-08-20T15:15:51.641Z,29.30
2018-08-20T15:18:20.118Z,29.20
2018-08-20T15:20:48.680Z,29.50
2018-08-20T15:23:17.140Z,29.30
2018-08-20T15:25:45.599Z,29.40
2018-08-20T15:28:14.055Z,29.10
2018-08-20T15:30:42.552Z,29.00
2018-08-20T15:33:11.026Z,28.90
2018-08-20T15:35:39.503Z,28.70
2018-08-20T15:38:08.152Z,28.60
2018-08-20T15:40:36.643Z,28.50
2018-08-20T15:43:05.109Z,28.60
2018-08-20T15:45:33.624Z,28.60
2018-08-20T15:48:02.118Z,28.80
2018-08-20T15:50:30.611Z,28.80
2018-08-20T15:52:59.142Z,28.70
2018-08-20T15:55:27.658Z,28.70
2018-08-20T15:57:56.127Z,28.80
2018-08-20T16:00:24.718Z,28.60
2018-08-20T16:02:53.174Z,28.60
2018-08-20T16:05:21.654Z,28.60
2018-08-20T16:07:50.166Z,28.50
2018-08-20T16:10:19.229Z,28.60
2018-08-20T16:12:47.688Z,28.50
2018-08-20T16:15:16.167Z,28.50
2018-08-20T16:17:44.639Z,28.60
2018-08-20T16:20:13.106Z,28.50
2018-08-20T16:22:41.616Z,28.40
2018-08-20T16:25:10.152Z,28.20
2018-08-20T16:27:38.648Z,28.00
2018-08-20T16:30:09.663Z,28.20
2018-08-20T16:32:38.276Z,28.10
2018-08-20T16:35:08.398Z,28.20
2018-08-20T16:37:36.926Z,28.20
2018-08-20T16:40:06.195Z,28.20
2018-08-20T16:42:34.692Z,28.30
2018-08-20T16:45:03.176Z,28.30
2018-08-20T16:47:31.677Z,28.30
2018-08-20T16:50:00.153Z,28.20
2018-08-20T16:52:28.630Z,28.10
2018-08-20T16:54:57.111Z,28.20
2018-08-20T16:57:25.622Z,28.30
2018-08-20T16:59:54.138Z,28.40
2018-08-20T17:02:29.090Z,28.40
2018-08-20T17:04:57.642Z,28.20
2018-08-20T17:07:26.141Z,28.20
2018-08-20T17:09:54.598Z,28.30
2018-08-20T17:12:23.056Z,28.20
2018-08-20T17:14:51.553Z,28.20
2018-08-20T17:17:20.058Z,28.10
2018-08-20T17:19:48.506Z,28.00
2018-08-20T17:22:16.967Z,27.90
2018-08-20T17:24:45.491Z,27.80
2018-08-20T17:27:13.981Z,27.70
2018-08-20T17:29:42.459Z,27.60
2018-08-20T17:32:10.975Z,27.60
2018-08-20T17:34:41.394Z,27.50
2018-08-20T17:37:09.990Z,27.20
2018-08-20T17:39:55.053Z,27.10
2018-08-20T17:42:23.993Z,27.00
2018-08-20T17:44:52.502Z,26.90
2018-08-20T17:47:24.028Z,26.90
2018-08-20T17:49:53.388Z,26.80
2018-08-20T17:52:22.558Z,26.80
2018-08-20T17:54:51.242Z,26.70
2018-08-20T17:57:19.764Z,26.70
2018-08-20T17:59:48.265Z,26.60
2018-08-20T18:02:23.500Z,26.60
2018-08-20T18:04:52.165Z,26.50
2018-08-20T18:07:20.692Z,26.40
2018-08-20T18:09:49.512Z,26.40
2018-08-20T18:12:18.041Z,26.40
2018-08-20T18:14:50.810Z,26.30
2018-08-20T18:17:19.397Z,26.30
2018-08-20T18:19:47.899Z,26.30
2018-08-20T18:22:16.710Z,26.30
2018-08-20T18:24:45.983Z,26.30
2018-08-20T18:27:14.509Z,26.30
2018-08-20T18:29:44.075Z,26.20
2018-08-20T18:32:12.597Z,26.20
2018-08-20T18:34:41.120Z,26.10
2018-08-20T18:37:09.676Z,26.20
2018-08-20T18:39:38.342Z,26.10
2018-08-20T18:42:09.756Z,26.00
2018-08-20T18:44:38.454Z,26.00
2018-08-20T18:47:08.471Z,26.00
2018-08-20T18:49:44.496Z,25.90
2018-08-20T18:52:13.908Z,25.90
2018-08-20T18:54:46.482Z,25.90
2018-08-20T18:57:25.843Z,25.80
2018-08-20T18:59:56.947Z,25.80
2018-08-20T19:02:42.778Z,25.70
2018-08-20T19:05:12.862Z,25.70
2018-08-20T19:07:41.863Z,25.60
2018-08-20T19:10:42.379Z,25.60
2018-08-20T19:13:10.867Z,25.40
2018-08-20T19:15:42.416Z,25.40
2018-08-20T19:18:13.379Z,25.30
2018-08-20T19:20:42.816Z,25.30
2018-08-20T19:23:11.342Z,25.20
2018-08-20T19:25:39.857Z,25.20
2018-08-20T19:28:17.897Z,25.20
2018-08-20T19:30:46.431Z,25.10
2018-08-20T19:33:20.183Z,25.10
2018-08-20T19:35:48.934Z,25.10
2018-08-20T19:38:17.494Z,25.00
2018-08-20T19:40:45.992Z,25.00
2018-08-20T19:43:14.452Z,24.90
2018-08-20T19:45:45.113Z,24.90
2018-08-20T19:48:14.553Z,24.90
2018-08-20T19:50:43.058Z,24.90
2018-08-20T19:53:16.980Z,24.80
2018-08-20T19:55:45.567Z,24.80
2018-08-20T19:58:20.180Z,24.80
2018-08-20T20:01:01.251Z,24.70
2018-08-20T20:03:31.190Z,24.70
2018-08-20T20:05:59.639Z,24.70
2018-08-20T20:08:28.255Z,24.70
2018-08-20T20:10:56.730Z,24.60
2018-08-20T20:13:25.215Z,24.60
2018-08-20T20:15:53.697Z,24.60
2018-08-20T20:18:22.184Z,24.50
2018-08-20T20:20:50.668Z,24.40
2018-08-20T20:23:19.124Z,24.50
2018-08-20T20:25:47.665Z,24.40
2018-08-20T20:28:16.559Z,24.40
2018-08-20T20:30:45.154Z,24.30
2018-08-20T20:33:13.670Z,24.20
2018-08-20T20:35:42.171Z,24.20
2018-08-20T20:38:10.710Z,24.10
2018-08-20T20:40:39.234Z,24.10
2018-08-20T20:43:07.750Z,24.10
2018-08-20T20:45:36.226Z,24.00
2018-08-20T20:48:04.774Z,24.00
2018-08-20T20:50:33.306Z,24.00
2018-08-20T20:53:01.814Z,23.90
2018-08-20T20:55:30.413Z,23.90
2018-08-20T20:57:58.987Z,23.90
2018-08-20T21:00:27.601Z,23.80
2018-08-20T21:03:03.319Z,23.80
2018-08-20T21:05:31.937Z,23.80
2018-08-20T21:08:00.475Z,23.70
2018-08-20T21:10:33.810Z,23.70
2018-08-20T21:13:02.319Z,23.70
2018-08-20T21:15:30.889Z,23.70
2018-08-20T21:17:59.919Z,23.60
2018-08-20T21:20:28.428Z,23.60
2018-08-20T21:22:56.897Z,23.60
2018-08-20T21:25:25.410Z,23.50
2018-08-20T21:27:53.857Z,23.50
2018-08-20T21:30:22.718Z,23.50
2018-08-20T21:32:51.188Z,23.50
2018-08-20T21:35:20.241Z,23.30
2018-08-20T21:37:48.697Z,23.30
2018-08-20T21:40:21.390Z,23.20
2018-08-20T21:42:49.850Z,23.20
2018-08-20T21:45:18.339Z,23.20
2018-08-20T21:47:46.847Z,23.20
2018-08-20T21:50:15.308Z,23.20
2018-08-20T21:52:43.919Z,23.10
2018-08-20T21:55:12.389Z,23.10
2018-08-20T21:57:45.255Z,23.00
2018-08-20T22:00:15.608Z,23.00
2018-08-20T22:02:49.357Z,23.00
2018-08-20T22:05:17.788Z,23.00
2018-08-20T22:07:46.554Z,22.90
2018-08-20T22:10:15.148Z,22.90
2018-08-20T22:12:43.689Z,22.80
2018-08-20T22:15:12.212Z,22.80
2018-08-20T22:17:42.616Z,22.80
2018-08-20T22:20:11.109Z,22.80
2018-08-20T22:22:39.594Z,22.70
2018-08-20T22:25:12.434Z,22.60
2018-08-20T22:27:46.249Z,22.60
2018-08-20T22:30:14.749Z,22.50
2018-08-20T22:32:43.509Z,22.40
2018-08-20T22:35:17.161Z,22.40
2018-08-20T22:37:47.673Z,22.30
2018-08-20T22:40:18.133Z,22.30
2018-08-20T22:42:51.662Z,22.20
2018-08-20T22:45:20.945Z,22.20
2018-08-20T22:47:50.278Z,22.20
2018-08-20T22:50:18.788Z,22.10
2018-08-20T22:52:48.816Z,22.10
2018-08-20T22:55:18.410Z,22.10
2018-08-20T22:57:58.712Z,22.10
2018-08-20T23:00:28.381Z,22.00
2018-08-20T23:02:58.213Z,22.10
2018-08-20T23:05:30.277Z,22.00
2018-08-20T23:08:06.167Z,21.90
2018-08-20T23:10:36.023Z,21.80
2018-08-20T23:13:05.134Z,21.80
2018-08-20T23:15:34.414Z,21.80
2018-08-20T23:18:03.806Z,21.80
2018-08-20T23:20:33.222Z,21.80
2018-08-20T23:23:03.016Z,21.80
2018-08-20T23:25:31.571Z,21.80
2018-08-20T23:28:00.076Z,21.90
2018-08-20T23:30:28.558Z,21.80
2018-08-20T23:32:57.029Z,21.80
2018-08-20T23:35:25.470Z,21.80
2018-08-20T23:37:53.916Z,21.90
2018-08-20T23:40:22.360Z,21.90
2018-08-20T23:42:50.811Z,21.80
2018-08-20T23:45:19.283Z,21.80
2018-08-20T23:47:47.755Z,21.70
2018-08-20T23:50:16.194Z,21.70
2018-08-20T23:52:44.656Z,21.60
2018-08-20T23:55:13.105Z,21.60
2018-08-20T23:57:41.562Z,21.50
